createdAt,value
2023-02-03T00:01:24.756Z,4.27
2023-02-03T00:02:57.904Z,4.33
2023-02-03T00:04:31.087Z,4.43
2023-02-03T00:06:05.754Z,4.53
2023-02-03T00:07:40.908Z,4.62
2023-02-03T00:09:16.555Z,4.67
2023-02-03T00:10:49.869Z,4.70
2023-02-03T00:12:23.571Z,4.76
2023-02-03T00:13:56.722Z,4.73
2023-02-03T00:15:29.780Z,4.84
2023-02-03T00:17:02.890Z,4.85
2023-02-03T00:18:36.327Z,4.90
2023-02-03T00:20:10.563Z,4.93
2023-02-03T00:21:43.961Z,4.94
2023-02-03T00:23:17.041Z,4.98
2023-02-03T00:24:51.513Z,5.01
2023-02-03T00:26:25.108Z,5.04
2023-02-03T00:27:58.427Z,5.07
2023-02-03T00:29:31.593Z,5.07
2023-02-03T00:31:04.959Z,5.09
2023-02-03T00:32:39.019Z,5.13
2023-02-03T00:34:12.224Z,5.22
2023-02-03T00:35:46.248Z,5.24
2023-02-03T00:37:18.602Z,5.24
2023-02-03T00:38:52.737Z,5.24
2023-02-03T00:40:29.948Z,5.22
2023-02-03T00:42:03.062Z,5.21
2023-02-03T00:43:35.207Z,5.16
2023-02-03T00:45:09.323Z,5.18
2023-02-03T00:46:42.826Z,5.12
2023-02-03T00:48:15.113Z,5.11
2023-02-03T00:49:50.718Z,5.16
2023-02-03T00:51:23.828Z,5.17
2023-02-03T00:52:57.064Z,5.15
2023-02-03T00:54:32.044Z,5.11
2023-02-03T00:56:12.823Z,5.09
2023-02-03T00:57:46.059Z,5.05
2023-02-03T00:59:19.377Z,5.05
2023-02-03T01:00:55.299Z,5.06
2023-02-03T01:02:28.785Z,5.06
2023-02-03T01:04:02.171Z,5.06
2023-02-03T01:05:34.477Z,5.09
2023-02-03T01:07:07.928Z,5.11
2023-02-03T01:08:41.138Z,5.11
2023-02-03T01:10:15.006Z,5.09
2023-02-03T01:11:49.461Z,4.99
2023-02-03T01:13:22.731Z,5.06
2023-02-03T01:14:56.227Z,5.10
2023-02-03T01:16:31.111Z,5.08
2023-02-03T01:18:04.391Z,5.03
2023-02-03T01:19:36.730Z,5.05
2023-02-03T01:21:11.576Z,5.06
2023-02-03T01:22:44.779Z,5.11
2023-02-03T01:24:17.972Z,5.15
2023-02-03T01:25:51.321Z,5.17
2023-02-03T01:27:26.041Z,5.19
2023-02-03T01:29:01.567Z,5.19
2023-02-03T01:30:34.857Z,5.20
2023-02-03T01:32:10.010Z,5.16
2023-02-03T01:33:42.721Z,5.18
2023-02-03T01:35:15.908Z,5.18
2023-02-03T01:36:49.139Z,5.18
2023-02-03T01:38:22.468Z,5.17
2023-02-03T01:39:56.043Z,5.12
2023-02-03T01:41:32.071Z,5.21
2023-02-03T01:43:06.629Z,5.19
2023-02-03T01:44:46.047Z,5.21
2023-02-03T01:46:27.278Z,5.19
2023-02-03T01:48:01.202Z,5.23
2023-02-03T01:49:37.341Z,5.25
2023-02-03T01:51:10.740Z,5.28
2023-02-03T01:52:46.874Z,5.26
2023-02-03T01:54:24.706Z,5.19
2023-02-03T01:55:59.903Z,5.30
2023-02-03T01:57:37.315Z,5.36
2023-02-03T01:59:11.723Z,5.38
2023-02-03T02:00:45.198Z,5.39
2023-02-03T02:02:18.391Z,5.38
2023-02-03T02:03:56.340Z,5.39
2023-02-03T02:05:35.394Z,5.40
2023-02-03T02:07:08.431Z,5.36
2023-02-03T02:08:44.211Z,5.31
2023-02-03T02:10:17.532Z,5.32
2023-02-03T02:11:50.631Z,5.29
2023-02-03T02:13:24.724Z,5.30
2023-02-03T02:14:59.680Z,5.26
2023-02-03T02:16:43.244Z,5.26
2023-02-03T02:18:42.197Z,5.22
2023-02-03T02:20:42.322Z,5.22
2023-02-03T02:22:23.509Z,5.24
2023-02-03T02:24:40.179Z,5.27
2023-02-03T02:26:52.170Z,5.25
2023-02-03T02:28:49.820Z,5.26
2023-02-03T02:30:41.053Z,5.29
2023-02-03T02:32:30.317Z,5.25
2023-02-03T02:34:14.636Z,5.28
2023-02-03T02:35:57.661Z,5.30
2023-02-03T02:37:40.142Z,5.24
2023-02-03T02:39:21.573Z,5.31
2023-02-03T02:41:02.400Z,5.30
2023-02-03T02:42:42.065Z,5.23
2023-02-03T02:44:22.817Z,5.24
2023-02-03T02:46:03.027Z,5.21
2023-02-03T02:47:37.096Z,5.20
2023-02-03T02:49:17.172Z,5.20
2023-02-03T02:50:54.665Z,5.20
2023-02-03T02:52:32.691Z,5.22
2023-02-03T02:54:09.905Z,5.20
2023-02-03T02:55:43.856Z,5.17
2023-02-03T02:57:19.957Z,5.17
2023-02-03T02:58:54.881Z,5.17
2023-02-03T03:00:31.952Z,5.12
2023-02-03T03:02:05.091Z,5.11
2023-02-03T03:03:42.958Z,5.12
2023-02-03T03:05:18.819Z,5.10
2023-02-03T03:07:01.209Z,5.07
2023-02-03T03:08:39.928Z,5.04
2023-02-03T03:10:17.217Z,5.04
2023-02-03T03:11:55.853Z,5.00
2023-02-03T03:13:33.577Z,4.99
2023-02-03T03:15:11.808Z,4.93
2023-02-03T03:16:50.125Z,4.94
2023-02-03T03:18:29.025Z,4.96
2023-02-03T03:20:08.752Z,4.93
2023-02-03T03:21:48.071Z,4.89
2023-02-03T03:23:24.795Z,4.87
2023-02-03T03:25:04.307Z,4.85
2023-02-03T03:26:43.188Z,4.84
2023-02-03T03:28:24.173Z,4.83
2023-02-03T03:30:01.501Z,4.78
2023-02-03T03:31:34.893Z,4.74
2023-02-03T03:33:09.452Z,4.77
2023-02-03T03:34:43.411Z,4.77
2023-02-03T03:36:25.234Z,4.80
2023-02-03T03:38:02.897Z,4.82
2023-02-03T03:39:44.182Z,4.83
2023-02-03T03:41:27.321Z,4.84
2023-02-03T03:43:04.449Z,4.88
2023-02-03T03:44:41.036Z,4.87
2023-02-03T03:46:18.929Z,4.92
2023-02-03T03:47:57.794Z,4.93
2023-02-03T03:49:34.785Z,4.98
2023-02-03T03:51:13.508Z,5.01
2023-02-03T03:52:51.071Z,5.03
2023-02-03T03:54:26.388Z,5.03
2023-02-03T03:56:02.891Z,5.03
2023-02-03T03:57:40.902Z,5.00
2023-02-03T03:59:19.264Z,5.05
2023-02-03T04:00:57.232Z,5.07
2023-02-03T04:02:31.817Z,5.05
2023-02-03T04:04:10.537Z,5.04
2023-02-03T04:05:44.168Z,5.03
2023-02-03T04:07:17.587Z,5.04
2023-02-03T04:08:51.147Z,5.00
2023-02-03T04:10:31.901Z,5.02
2023-02-03T04:12:06.485Z,4.95
2023-02-03T04:13:39.773Z,4.99
2023-02-03T04:15:12.903Z,5.00
2023-02-03T04:16:46.096Z,4.98
2023-02-03T04:18:19.507Z,4.99
2023-02-03T04:19:51.897Z,4.98
2023-02-03T04:21:25.003Z,4.94
2023-02-03T04:22:58.571Z,4.94
2023-02-03T04:24:33.071Z,4.89
2023-02-03T04:26:06.616Z,4.89
2023-02-03T04:27:39.906Z,4.84
2023-02-03T04:29:12.156Z,4.84
2023-02-03T04:30:45.351Z,4.86
2023-02-03T04:32:18.771Z,4.87
2023-02-03T04:33:50.963Z,4.84
2023-02-03T04:35:24.111Z,4.84
2023-02-03T04:36:57.371Z,4.85
2023-02-03T04:38:30.787Z,4.85
2023-02-03T04:40:06.173Z,4.86
2023-02-03T04:41:39.399Z,4.92
2023-02-03T04:43:14.505Z,4.97
2023-02-03T04:44:47.664Z,4.98
2023-02-03T04:46:20.798Z,4.94
2023-02-03T04:47:54.842Z,4.92
2023-02-03T04:49:28.060Z,4.93
2023-02-03T04:51:03.449Z,4.92
2023-02-03T04:52:36.661Z,4.96
2023-02-03T04:54:08.838Z,4.88
2023-02-03T04:55:43.320Z,4.87
2023-02-03T04:57:16.547Z,4.84
2023-02-03T04:58:52.661Z,4.90
2023-02-03T05:00:26.800Z,4.86
2023-02-03T05:02:00.247Z,4.90
2023-02-03T05:03:33.737Z,4.91
2023-02-03T05:05:07.820Z,4.90
2023-02-03T05:06:40.969Z,4.83
2023-02-03T05:08:14.268Z,4.88
2023-02-03T05:09:46.658Z,4.85
2023-02-03T05:11:21.317Z,4.84
2023-02-03T05:12:54.874Z,4.84
2023-02-03T05:14:28.098Z,4.83
2023-02-03T05:16:00.525Z,4.82
2023-02-03T05:17:38.851Z,4.83
2023-02-03T05:19:12.022Z,4.87
2023-02-03T05:20:45.370Z,4.86
2023-02-03T05:22:18.688Z,4.90
2023-02-03T05:23:51.880Z,4.88
2023-02-03T05:25:25.049Z,4.92
2023-02-03T05:26:59.549Z,4.97
2023-02-03T05:28:32.740Z,4.94
2023-02-03T05:30:09.467Z,4.92
2023-02-03T05:31:42.631Z,4.91
2023-02-03T05:33:15.117Z,4.91
2023-02-03T05:34:48.330Z,4.94
2023-02-03T05:36:21.454Z,4.95
2023-02-03T05:37:54.602Z,4.86
2023-02-03T05:39:27.936Z,4.92
2023-02-03T05:41:18.702Z,4.99
2023-02-03T05:42:52.179Z,4.93
2023-02-03T05:44:27.533Z,4.92
2023-02-03T05:46:00.962Z,4.88
2023-02-03T05:47:34.270Z,4.89
2023-02-03T05:49:07.632Z,4.87
2023-02-03T05:50:40.779Z,4.86
2023-02-03T05:52:14.149Z,4.89
2023-02-03T05:53:46.318Z,4.87
2023-02-03T05:55:19.576Z,4.87
2023-02-03T05:56:53.117Z,4.83
2023-02-03T05:58:27.740Z,4.89
2023-02-03T06:00:01.098Z,4.89
2023-02-03T06:01:34.818Z,4.92
2023-02-03T06:03:08.439Z,4.94
2023-02-03T06:04:41.898Z,4.88
2023-02-03T06:06:15.330Z,4.91
2023-02-03T06:07:48.639Z,4.92
2023-02-03T06:09:21.758Z,4.94
2023-02-03T06:10:59.114Z,4.94
2023-02-03T06:12:32.445Z,4.97
2023-02-03T06:14:07.337Z,4.98
2023-02-03T06:15:41.284Z,5.00
2023-02-03T06:17:14.624Z,5.01
2023-02-03T06:18:47.949Z,5.04
2023-02-03T06:20:21.939Z,5.02
2023-02-03T06:21:55.034Z,5.06
2023-02-03T06:23:28.634Z,5.05
2023-02-03T06:25:01.968Z,5.02
2023-02-03T06:26:35.185Z,5.00
2023-02-03T06:28:07.430Z,4.97
2023-02-03T06:29:42.150Z,4.97
2023-02-03T06:31:15.735Z,4.97
2023-02-03T06:32:49.654Z,4.95
2023-02-03T06:34:22.864Z,4.94
2023-02-03T06:35:56.349Z,4.94
2023-02-03T06:37:29.629Z,4.90
2023-02-03T06:39:02.772Z,4.89
2023-02-03T06:40:35.899Z,4.89
2023-02-03T06:42:09.497Z,4.88
2023-02-03T06:43:42.696Z,4.87
2023-02-03T06:45:17.462Z,4.87
2023-02-03T06:46:51.335Z,4.87
2023-02-03T06:48:24.588Z,4.85
2023-02-03T06:49:57.960Z,4.81
2023-02-03T06:51:31.134Z,4.76
2023-02-03T06:53:04.294Z,4.80
2023-02-03T06:54:37.552Z,4.83
2023-02-03T06:56:10.884Z,4.80
2023-02-03T06:57:47.975Z,4.84
2023-02-03T06:59:21.036Z,4.84
2023-02-03T07:00:58.283Z,4.81
2023-02-03T07:02:31.631Z,4.84
2023-02-03T07:04:05.132Z,4.81
2023-02-03T07:05:38.546Z,4.83
2023-02-03T07:07:11.957Z,4.83
2023-02-03T07:08:45.292Z,4.88
2023-02-03T07:10:18.524Z,4.92
2023-02-03T07:11:51.701Z,4.98
2023-02-03T07:13:24.957Z,4.92
2023-02-03T07:14:58.211Z,4.96
2023-02-03T07:16:34.276Z,4.94
2023-02-03T07:18:07.474Z,5.02
2023-02-03T07:19:40.556Z,5.02
2023-02-03T07:21:14.481Z,5.07
2023-02-03T07:22:53.097Z,5.08
2023-02-03T07:24:26.254Z,5.13
2023-02-03T07:26:01.164Z,5.14
2023-02-03T07:27:34.402Z,5.11
2023-02-03T07:29:07.718Z,5.10
2023-02-03T07:30:40.830Z,5.11
2023-02-03T07:32:15.605Z,5.12
2023-02-03T07:33:49.035Z,5.12
2023-02-03T07:35:22.199Z,5.18
2023-02-03T07:36:55.551Z,5.20
2023-02-03T07:38:29.840Z,5.24
2023-02-03T07:40:03.192Z,5.21
2023-02-03T07:41:36.311Z,5.25
2023-02-03T07:43:09.520Z,5.28
2023-02-03T07:44:42.791Z,5.23
2023-02-03T07:46:16.441Z,5.21
2023-02-03T07:47:51.052Z,5.15
2023-02-03T07:49:24.219Z,5.15
2023-02-03T07:50:57.754Z,5.16
2023-02-03T07:52:31.182Z,5.15
2023-02-03T07:54:04.527Z,5.19
2023-02-03T07:55:39.558Z,5.23
2023-02-03T07:57:12.733Z,5.16
2023-02-03T07:58:46.014Z,5.22
2023-02-03T08:00:20.113Z,5.25
2023-02-03T08:01:56.293Z,5.26
2023-02-03T08:03:31.016Z,5.27
2023-02-03T08:05:04.686Z,5.33
2023-02-03T08:06:37.835Z,5.39
2023-02-03T08:08:10.971Z,5.41
2023-02-03T08:09:44.302Z,5.41
2023-02-03T08:11:17.492Z,5.41
2023-02-03T08:12:50.677Z,5.47
2023-02-03T08:14:24.065Z,5.48
2023-02-03T08:15:57.583Z,5.54
2023-02-03T08:17:31.031Z,5.57
2023-02-03T08:19:05.846Z,5.55
2023-02-03T08:20:39.037Z,5.57
2023-02-03T08:22:16.098Z,5.54
2023-02-03T08:23:49.446Z,5.62
2023-02-03T08:25:22.883Z,5.67
2023-02-03T08:26:56.082Z,5.63
2023-02-03T08:28:29.320Z,5.67
2023-02-03T08:30:02.554Z,5.64
2023-02-03T08:31:36.050Z,5.63
2023-02-03T08:33:09.224Z,5.62
2023-02-03T08:34:44.439Z,5.60
2023-02-03T08:36:17.617Z,5.64
2023-02-03T08:37:50.705Z,5.64
2023-02-03T08:39:23.921Z,5.64
2023-02-03T08:40:57.330Z,5.66
2023-02-03T08:42:30.598Z,5.73
2023-02-03T08:44:03.755Z,5.81
2023-02-03T08:45:36.851Z,5.86
2023-02-03T08:47:10.054Z,5.91
2023-02-03T08:48:43.405Z,5.93
2023-02-03T08:50:19.836Z,5.97
2023-02-03T08:51:53.600Z,6.02
2023-02-03T08:53:26.992Z,6.06
2023-02-03T08:55:00.253Z,6.13
2023-02-03T08:56:34.280Z,6.15
2023-02-03T08:58:07.377Z,6.17
2023-02-03T08:59:42.368Z,6.16
2023-02-03T09:01:16.706Z,6.14
2023-02-03T09:02:49.868Z,6.23
2023-02-03T09:04:24.818Z,6.26
2023-02-03T09:06:00.361Z,6.15
2023-02-03T09:07:33.773Z,6.13
2023-02-03T09:09:07.051Z,6.09
2023-02-03T09:10:40.206Z,6.15
2023-02-03T09:12:13.433Z,6.25
2023-02-03T09:13:47.207Z,6.29
2023-02-03T09:15:20.433Z,6.36
2023-02-03T09:16:54.010Z,6.42
2023-02-03T09:18:28.885Z,6.39
2023-02-03T09:20:07.023Z,6.43
2023-02-03T09:21:45.756Z,6.39
2023-02-03T09:23:21.034Z,6.36
2023-02-03T09:24:54.336Z,6.40
2023-02-03T09:26:27.687Z,6.44
2023-02-03T09:28:03.011Z,6.46
2023-02-03T09:29:36.181Z,6.44
2023-02-03T09:31:11.330Z,6.44
2023-02-03T09:32:48.883Z,6.45
2023-02-03T09:34:22.867Z,6.46
2023-02-03T09:35:57.102Z,6.49
2023-02-03T09:37:32.216Z,6.51
2023-02-03T09:39:05.869Z,6.56
2023-02-03T09:40:40.613Z,6.62
2023-02-03T09:42:45.270Z,6.57
2023-02-03T09:44:22.566Z,6.55
2023-02-03T09:45:55.712Z,6.63
2023-02-03T09:47:33.663Z,6.64
2023-02-03T09:49:14.981Z,6.72
2023-02-03T09:50:50.343Z,6.78
2023-02-03T09:52:26.508Z,6.85
2023-02-03T09:54:06.349Z,6.92
2023-02-03T09:55:42.394Z,6.93
2023-02-03T09:57:20.427Z,6.92
2023-02-03T09:58:53.866Z,6.93
2023-02-03T10:00:31.749Z,6.91
2023-02-03T10:02:24.315Z,6.96
2023-02-03T10:04:05.598Z,7.07
2023-02-03T10:05:54.083Z,7.12
2023-02-03T10:07:36.880Z,7.13
2023-02-03T10:09:27.501Z,7.18
2023-02-03T10:11:13.243Z,7.13
2023-02-03T10:13:01.434Z,7.17
2023-02-03T10:14:47.668Z,7.20
2023-02-03T10:16:37.325Z,7.19
2023-02-03T10:18:15.308Z,7.25
2023-02-03T10:19:54.486Z,7.16
2023-02-03T10:21:36.628Z,7.13
2023-02-03T10:23:16.933Z,7.12
2023-02-03T10:24:56.300Z,7.20
2023-02-03T10:26:30.081Z,7.29
2023-02-03T10:28:10.741Z,7.38
2023-02-03T10:29:44.997Z,7.46
2023-02-03T10:31:21.671Z,7.51
2023-02-03T10:32:57.124Z,7.55
2023-02-03T10:34:30.319Z,7.58
2023-02-03T10:36:12.154Z,7.61
2023-02-03T10:37:50.801Z,7.61
2023-02-03T10:39:32.169Z,7.62
2023-02-03T10:41:06.833Z,7.73
2023-02-03T10:42:54.111Z,7.80
2023-02-03T10:44:35.862Z,7.74
2023-02-03T10:46:09.080Z,7.81
2023-02-03T10:47:46.938Z,7.95
2023-02-03T10:49:21.484Z,8.04
2023-02-03T10:50:56.681Z,7.95
2023-02-03T10:52:32.669Z,7.93
2023-02-03T10:54:06.409Z,7.94
2023-02-03T10:55:39.897Z,7.98
2023-02-03T10:57:16.602Z,7.82
2023-02-03T10:58:51.982Z,7.78
2023-02-03T11:00:30.597Z,7.88
2023-02-03T11:02:19.366Z,7.90
2023-02-03T11:03:59.640Z,7.92
2023-02-03T11:05:32.739Z,7.92
2023-02-03T11:07:08.320Z,7.73
2023-02-03T11:08:43.717Z,7.69
2023-02-03T11:10:29.337Z,7.48
2023-02-03T11:12:13.535Z,7.46
2023-02-03T11:13:49.018Z,7.33
2023-02-03T11:15:22.131Z,7.32
2023-02-03T11:16:55.753Z,7.32
2023-02-03T11:18:38.317Z,7.28
2023-02-03T11:20:16.810Z,7.17
2023-02-03T11:21:52.692Z,7.35
2023-02-03T11:23:26.644Z,7.49
2023-02-03T11:25:00.833Z,7.61
2023-02-03T11:26:37.820Z,7.69
2023-02-03T11:28:14.626Z,7.77
2023-02-03T11:30:07.854Z,7.80
2023-02-03T11:31:41.277Z,7.80
2023-02-03T11:33:20.770Z,7.68
2023-02-03T11:34:58.876Z,7.69
2023-02-03T11:36:34.834Z,7.71
2023-02-03T11:38:30.857Z,7.71
2023-02-03T11:40:27.717Z,7.56
2023-02-03T11:42:01.403Z,7.62
2023-02-03T11:43:34.607Z,7.64
2023-02-03T11:45:17.049Z,7.51
2023-02-03T11:46:53.766Z,7.42
2023-02-03T11:48:31.197Z,7.50
2023-02-03T11:50:21.267Z,7.46
2023-02-03T11:52:04.667Z,7.42
2023-02-03T11:53:56.999Z,7.32
2023-02-03T11:56:01.207Z,7.36
2023-02-03T11:57:44.228Z,7.42
2023-02-03T11:59:47.318Z,7.45
2023-02-03T12:01:37.319Z,7.45
2023-02-03T12:03:28.385Z,7.41
2023-02-03T12:05:14.473Z,7.32
2023-02-03T12:07:15.695Z,7.29
2023-02-03T12:09:04.403Z,7.26
2023-02-03T12:10:52.998Z,7.32
2023-02-03T12:12:50.461Z,7.32
2023-02-03T12:14:42.742Z,7.39
2023-02-03T12:16:29.819Z,7.44
2023-02-03T12:18:14.779Z,7.51
2023-02-03T12:20:01.719Z,7.42
2023-02-03T12:21:44.156Z,7.39
2023-02-03T12:23:27.931Z,7.53
2023-02-03T12:25:10.666Z,7.63
2023-02-03T12:26:51.832Z,7.61
2023-02-03T12:28:45.217Z,7.58
2023-02-03T12:30:26.734Z,7.49
2023-02-03T12:32:11.282Z,7.37
2023-02-03T12:33:50.482Z,7.43
2023-02-03T12:35:31.080Z,7.39
2023-02-03T12:37:09.210Z,7.32
2023-02-03T12:38:47.993Z,7.37
2023-02-03T12:40:26.823Z,7.36
2023-02-03T12:42:02.903Z,7.33
2023-02-03T12:43:39.781Z,7.42
2023-02-03T12:45:18.962Z,7.44
2023-02-03T12:46:57.463Z,7.42
2023-02-03T12:48:40.704Z,7.49
2023-02-03T12:50:19.434Z,7.57
2023-02-03T12:51:59.209Z,7.59
2023-02-03T12:53:35.354Z,7.62
2023-02-03T12:55:22.834Z,7.67
2023-02-03T12:56:59.510Z,7.75
2023-02-03T12:58:38.343Z,7.79
2023-02-03T13:00:29.243Z,7.85
2023-02-03T13:02:13.851Z,7.76
2023-02-03T13:03:53.850Z,7.67
2023-02-03T13:05:34.073Z,7.62
2023-02-03T13:07:17.811Z,7.55
2023-02-03T13:08:57.688Z,7.48
2023-02-03T13:10:38.328Z,7.50
2023-02-03T13:12:16.829Z,7.55
2023-02-03T13:13:55.822Z,7.54
2023-02-03T13:15:32.763Z,7.49
2023-02-03T13:17:13.768Z,7.56
2023-02-03T13:18:55.208Z,7.62
2023-02-03T13:20:31.517Z,7.70
2023-02-03T13:22:13.187Z,7.77
2023-02-03T13:23:48.197Z,7.80
2023-02-03T13:25:26.925Z,7.77
2023-02-03T13:27:19.071Z,7.74
2023-02-03T13:29:09.797Z,7.82
2023-02-03T13:31:08.793Z,7.85
2023-02-03T13:33:04.203Z,7.77
2023-02-03T13:34:53.380Z,7.88
2023-02-03T13:37:05.842Z,7.95
2023-02-03T13:39:11.709Z,8.07
2023-02-03T13:40:56.055Z,8.17
2023-02-03T13:42:32.044Z,8.26
2023-02-03T13:44:06.647Z,8.22
2023-02-03T13:45:44.290Z,8.18
2023-02-03T13:47:20.021Z,8.07
2023-02-03T13:48:55.367Z,8.11
2023-02-03T13:50:32.167Z,8.09
2023-02-03T13:52:05.709Z,8.06
2023-02-03T13:53:41.607Z,7.97
2023-02-03T13:55:30.162Z,7.94
2023-02-03T13:57:07.442Z,7.78
2023-02-03T13:58:40.883Z,7.71
2023-02-03T14:00:56.487Z,7.60
2023-02-03T14:02:45.390Z,7.60
2023-02-03T14:04:53.054Z,7.67
2023-02-03T14:06:59.909Z,7.79
2023-02-03T14:08:54.202Z,7.89
2023-02-03T14:10:27.355Z,7.91
2023-02-03T14:12:42.484Z,7.93
2023-02-03T14:14:44.733Z,7.99
2023-02-03T14:16:25.408Z,7.94
2023-02-03T14:18:33.483Z,7.81
2023-02-03T14:21:00.344Z,7.76
2023-02-03T14:22:35.108Z,7.76
2023-02-03T14:24:12.153Z,7.79
2023-02-03T14:25:48.312Z,7.70
2023-02-03T14:27:24.967Z,7.72
2023-02-03T14:28:58.540Z,7.63
2023-02-03T14:30:31.844Z,7.57
2023-02-03T14:32:06.758Z,7.54
2023-02-03T14:33:58.803Z,7.42
2023-02-03T14:35:35.141Z,7.42
2023-02-03T14:37:19.161Z,7.38
2023-02-03T14:38:53.100Z,7.34
2023-02-03T14:40:36.771Z,7.30
2023-02-03T14:42:19.559Z,7.19
2023-02-03T14:44:02.155Z,7.18
2023-02-03T14:46:14.393Z,7.13
2023-02-03T14:47:59.910Z,7.11
2023-02-03T14:49:54.273Z,7.03
2023-02-03T14:51:53.303Z,6.88
2023-02-03T14:53:43.441Z,6.92
2023-02-03T14:55:30.917Z,6.81
2023-02-03T14:57:19.719Z,6.75
2023-02-03T14:58:56.701Z,6.78
2023-02-03T15:00:33.791Z,6.78
2023-02-03T15:02:19.205Z,6.75
2023-02-03T15:04:21.803Z,6.71
2023-02-03T15:05:57.883Z,6.67
2023-02-03T15:07:44.163Z,6.54
2023-02-03T15:09:27.209Z,6.47
2023-02-03T15:11:02.479Z,6.35
2023-02-03T15:12:38.870Z,6.20
2023-02-03T15:14:26.526Z,6.18
2023-02-03T15:16:04.433Z,6.16
2023-02-03T15:17:38.787Z,6.21
2023-02-03T15:19:24.083Z,6.20
2023-02-03T15:20:59.448Z,6.20
2023-02-03T15:22:32.772Z,6.15
2023-02-03T15:24:14.989Z,6.10
2023-02-03T15:25:55.783Z,6.06
2023-02-03T15:27:32.616Z,6.05
2023-02-03T15:29:07.481Z,6.02
2023-02-03T15:30:42.245Z,5.96
2023-02-03T15:32:20.909Z,5.92
2023-02-03T15:33:58.113Z,5.90
2023-02-03T15:35:34.527Z,5.88
2023-02-03T15:37:11.732Z,5.82
2023-02-03T15:38:50.868Z,5.82
2023-02-03T15:40:26.880Z,5.80
2023-02-03T15:42:01.817Z,5.74
2023-02-03T15:43:39.863Z,5.70
2023-02-03T15:45:25.853Z,5.65
2023-02-03T15:47:01.964Z,5.61
2023-02-03T15:48:41.253Z,5.57
2023-02-03T15:50:30.900Z,5.52
2023-02-03T15:52:10.944Z,5.50
2023-02-03T15:53:54.716Z,5.43
2023-02-03T15:55:35.746Z,5.41
2023-02-03T15:57:11.977Z,5.39
2023-02-03T15:58:48.267Z,5.28
2023-02-03T16:00:31.008Z,5.33
2023-02-03T16:02:16.030Z,5.27
2023-02-03T16:03:53.083Z,5.17
2023-02-03T16:05:29.127Z,5.20
2023-02-03T16:07:02.653Z,5.20
2023-02-03T16:08:39.853Z,5.19
2023-02-03T16:10:26.934Z,5.15
2023-02-03T16:12:16.085Z,5.10
2023-02-03T16:13:50.708Z,5.05
2023-02-03T16:15:26.114Z,5.00
2023-02-03T16:17:05.418Z,4.95
2023-02-03T16:18:39.704Z,4.90
2023-02-03T16:20:32.392Z,4.89
2023-02-03T16:22:05.579Z,4.84
2023-02-03T16:23:38.742Z,4.84
2023-02-03T16:25:15.620Z,4.82
2023-02-03T16:26:48.881Z,4.81
2023-02-03T16:28:40.429Z,4.78
2023-02-03T16:30:43.696Z,4.74
2023-02-03T16:32:37.759Z,4.71
2023-02-03T16:34:33.000Z,4.65
2023-02-03T16:36:30.256Z,4.61
2023-02-03T16:38:25.252Z,4.60
2023-02-03T16:40:16.090Z,4.56
2023-02-03T16:42:07.112Z,4.53
2023-02-03T16:43:58.200Z,4.48
2023-02-03T16:45:50.453Z,4.44
2023-02-03T16:47:44.449Z,4.36
2023-02-03T16:49:35.151Z,4.27
2023-02-03T16:51:15.886Z,4.19
2023-02-03T16:52:49.059Z,4.14
2023-02-03T16:54:22.357Z,4.08
2023-02-03T16:55:57.220Z,4.04
2023-02-03T16:57:30.335Z,4.00
2023-02-03T16:59:03.541Z,3.95
2023-02-03T17:00:37.298Z,3.91
2023-02-03T17:02:11.674Z,3.87
2023-02-03T17:03:45.607Z,3.83
2023-02-03T17:05:19.668Z,3.78
2023-02-03T17:06:52.861Z,3.77
2023-02-03T17:08:27.137Z,3.73
2023-02-03T17:10:00.276Z,3.70
2023-02-03T17:11:33.515Z,3.67
2023-02-03T17:13:08.012Z,3.62
2023-02-03T17:14:41.198Z,3.58
2023-02-03T17:16:18.324Z,3.51
2023-02-03T17:17:50.529Z,3.44
2023-02-03T17:19:23.753Z,3.40
2023-02-03T17:20:58.911Z,3.36
2023-02-03T17:22:35.009Z,3.30
2023-02-03T17:24:08.568Z,3.26
2023-02-03T17:25:42.053Z,3.23
2023-02-03T17:27:15.245Z,3.21
2023-02-03T17:28:48.564Z,3.14
2023-02-03T17:30:21.837Z,3.07
2023-02-03T17:31:56.529Z,3.06
2023-02-03T17:33:30.737Z,3.01
2023-02-03T17:35:03.866Z,2.99
2023-02-03T17:36:37.227Z,2.95
2023-02-03T17:38:10.872Z,2.92
2023-02-03T17:54:31.670Z,2.43
2023-02-03T17:56:09.357Z,2.41
2023-02-03T17:57:42.516Z,2.40
2023-02-03T17:59:16.350Z,2.38
2023-02-03T18:00:50.000Z,2.41
2023-02-03T18:02:26.513Z,2.43
2023-02-03T18:04:01.165Z,2.45
2023-02-03T18:05:35.355Z,2.47
2023-02-03T18:07:08.816Z,2.47
2023-02-03T18:08:45.362Z,2.44
2023-02-03T18:10:21.321Z,2.54
2023-02-03T18:11:54.467Z,2.57
2023-02-03T18:13:27.894Z,2.57
2023-02-03T18:15:01.204Z,2.56
2023-02-03T18:16:36.294Z,2.58
2023-02-03T18:18:11.062Z,2.49
2023-02-03T18:19:49.137Z,2.37
2023-02-03T18:21:26.916Z,2.06
2023-02-03T18:23:00.125Z,1.85
2023-02-03T18:24:33.246Z,1.75
2023-02-03T18:26:07.451Z,1.64
2023-02-03T18:27:41.259Z,1.49
2023-02-03T18:29:14.529Z,1.44
2023-02-03T18:30:47.885Z,1.40
2023-02-03T18:32:21.266Z,1.46
2023-02-03T18:33:55.918Z,1.45
2023-02-03T18:35:29.810Z,1.48
2023-02-03T18:37:02.962Z,1.41
2023-02-03T18:38:37.293Z,1.38
2023-02-03T18:40:11.941Z,1.38
2023-02-03T18:41:45.095Z,1.41
2023-02-03T18:43:18.337Z,1.44
2023-02-03T18:44:51.528Z,1.47
2023-02-03T18:46:26.860Z,1.49
2023-02-03T18:48:00.153Z,1.51
2023-02-03T18:49:35.581Z,1.47
2023-02-03T18:51:10.031Z,1.40
2023-02-03T18:52:43.163Z,1.33
2023-02-03T18:54:16.314Z,1.32
2023-02-03T18:55:48.487Z,1.34
2023-02-03T18:57:22.804Z,1.31
2023-02-03T18:58:55.919Z,1.27
2023-02-03T19:00:29.546Z,1.15
2023-02-03T19:02:02.932Z,1.12
2023-02-03T19:03:38.059Z,1.13
2023-02-03T19:05:14.102Z,1.14
2023-02-03T19:06:47.719Z,1.07
2023-02-03T19:08:21.110Z,1.09
2023-02-03T19:09:54.480Z,1.04
2023-02-03T19:11:28.024Z,0.99
2023-02-03T19:13:01.318Z,0.95
2023-02-03T19:14:35.573Z,0.91
2023-02-03T19:16:10.184Z,0.82
2023-02-03T19:17:43.378Z,0.78
2023-02-03T19:19:19.555Z,0.76
2023-02-03T19:20:54.140Z,0.70
2023-02-03T19:22:27.680Z,0.65
2023-02-03T19:24:00.944Z,0.65
2023-02-03T19:25:34.075Z,0.62
2023-02-03T19:27:07.417Z,0.65
2023-02-03T19:28:41.779Z,0.64
2023-02-03T19:30:15.381Z,0.66
2023-02-03T19:31:48.662Z,0.66
2023-02-03T19:33:21.963Z,0.68
2023-02-03T19:34:55.246Z,0.64
2023-02-03T19:36:30.596Z,0.70
2023-02-03T19:38:03.991Z,0.74
2023-02-03T19:39:37.400Z,0.86
2023-02-03T19:41:11.902Z,0.94
2023-02-03T19:42:45.110Z,1.01
2023-02-03T19:44:18.259Z,1.05
2023-02-03T19:45:51.434Z,1.08
2023-02-03T19:47:24.690Z,1.17
2023-02-03T19:48:57.979Z,1.26
2023-02-03T19:50:31.352Z,1.35
2023-02-03T19:52:09.143Z,1.42
2023-02-03T19:53:42.385Z,1.47
2023-02-03T19:55:16.169Z,1.52
2023-02-03T19:56:49.724Z,1.52
2023-02-03T19:58:23.600Z,1.51
2023-02-03T19:59:57.051Z,1.49
2023-02-03T20:01:30.272Z,1.53
2023-02-03T20:03:03.483Z,1.53
2023-02-03T20:04:36.708Z,1.52
2023-02-03T20:06:09.985Z,1.57
2023-02-03T20:07:44.728Z,1.57
2023-02-03T20:09:17.901Z,1.54
2023-02-03T20:10:51.512Z,1.49
2023-02-03T20:12:24.934Z,1.44
2023-02-03T20:13:58.173Z,1.44
2023-02-03T20:15:31.562Z,1.50
2023-02-03T20:17:06.174Z,1.57
2023-02-03T20:18:40.476Z,1.56
2023-02-03T20:20:13.948Z,1.54
2023-02-03T20:21:47.530Z,1.53
2023-02-03T20:23:22.261Z,1.51
2023-02-03T20:24:55.693Z,1.49
2023-02-03T20:26:29.127Z,1.48
2023-02-03T20:28:04.414Z,1.44
2023-02-03T20:29:37.663Z,1.44
2023-02-03T20:31:11.019Z,1.46
2023-02-03T20:32:44.426Z,1.47
2023-02-03T20:34:17.642Z,1.53
2023-02-03T20:35:50.809Z,1.61
2023-02-03T20:37:24.059Z,1.69
2023-02-03T20:38:58.756Z,1.65
2023-02-03T20:40:34.476Z,1.66
2023-02-03T20:42:15.041Z,1.68
2023-02-03T20:43:48.765Z,1.76
2023-02-03T20:45:24.273Z,1.80
2023-02-03T20:46:57.964Z,1.89
2023-02-03T20:48:31.252Z,1.92
2023-02-03T20:50:04.662Z,1.93
2023-02-03T20:51:37.725Z,2.00
2023-02-03T20:53:14.413Z,2.03
2023-02-03T20:54:49.005Z,2.04
2023-02-03T20:56:23.464Z,2.00
2023-02-03T20:57:57.144Z,2.11
2023-02-03T20:59:31.843Z,2.15
2023-02-03T21:01:13.367Z,2.18
2023-02-03T21:03:04.572Z,2.22
2023-02-03T21:04:55.166Z,2.23
2023-02-03T21:06:30.206Z,2.30
2023-02-03T21:08:04.507Z,2.32
2023-02-03T21:09:37.689Z,2.28
2023-02-03T21:11:14.770Z,2.15
2023-02-03T21:12:48.174Z,2.04
2023-02-03T21:14:23.402Z,2.02
2023-02-03T21:15:59.710Z,1.99
2023-02-03T21:17:37.247Z,1.94
2023-02-03T21:19:17.757Z,1.87
2023-02-03T21:20:50.812Z,1.92
2023-02-03T21:22:26.027Z,1.93
2023-02-03T21:23:59.268Z,1.97
2023-02-03T21:25:34.139Z,1.97
2023-02-03T21:27:24.785Z,2.01
2023-02-03T21:28:59.434Z,2.03
2023-02-03T21:30:35.058Z,2.03
2023-02-03T21:32:14.999Z,2.05
2023-02-03T21:33:48.141Z,2.02
2023-02-03T21:35:25.985Z,2.00
2023-02-03T21:37:02.715Z,2.04
2023-02-03T21:38:35.840Z,2.11
2023-02-03T21:40:21.768Z,2.15
2023-02-03T21:41:55.208Z,2.22
2023-02-03T21:43:30.570Z,2.26
2023-02-03T21:45:03.719Z,2.29
2023-02-03T21:46:37.007Z,2.35
2023-02-03T21:48:29.233Z,2.38
2023-02-03T21:50:02.552Z,2.42
2023-02-03T21:51:39.962Z,2.46
2023-02-03T21:53:25.452Z,2.51